Skip to main content

NOAA/GLERL Met Station at Muskegon, MI

Previous 3 Hours (2 minute increments)
See also Previous 5 Days (top of hour)
Jump down to Data
Switch to [English][Metric]
Zoom: Click and drag, Pan: shift-click and drag, Unzoom: double-click, Unzoom All






See also 1-day windrose plot


NOAA/GLERL Met Station at Muskegon, MI

Previous 3 Hours (2 minute increments)
See also Previous 5 Days (top of hour only)
Jump up to Graphs
Switch to [English][Metric]
                  Wind  Wind  Wind   Air   Dew   Rel     Sta   PAR
                   Spd   Gst   Dir  Temp    Pt   Hum    Pres uE/m2/
YYYY-MM-DD   EST   kts   kts   deg     F     F     %   in Hg   sec
2022-11-27 11:10   7.4   8.7    76  42.1  31.6  66.0   28.85   621
2022-11-27 11:08   7.6   9.5    73  41.9  31.4  66.0   28.85   504
2022-11-27 11:06   7.4   8.6    75  42.3  31.5  65.4   28.85   527
2022-11-27 11:04   7.0   8.7    71  42.4  31.7  65.5   28.86   601
2022-11-27 11:02   6.2   8.0    71  42.3  31.7  65.9   28.86   814
2022-11-27 11:00   5.4   7.0    73  41.7  31.4  66.4   28.86  1054
2022-11-27 10:58   6.4   8.4    80  41.5  31.3  66.7   28.86   820
2022-11-27 10:56   6.4   8.4    79  41.5  31.6  67.5   28.87   509
2022-11-27 10:54   7.4   8.7    73  41.4  31.5  67.7   28.87   484
2022-11-27 10:52   6.8   7.6    73  41.2  31.4  67.8   28.87   468
2022-11-27 10:50   7.0   8.0    73  41.2  31.3  67.7   28.87   431
2022-11-27 10:48   6.6   7.4    75  41.0  31.3  68.0   28.87   394
2022-11-27 10:46   7.6   8.0    74  41.0  31.3  68.1   28.87   368
2022-11-27 10:44   6.4   8.2    76  41.0  31.3  68.0   28.87   348
2022-11-27 10:42   6.0   7.6    75  40.8  31.1  68.1   28.87   332
2022-11-27 10:40   6.0   8.0    77  40.8  31.1  68.1   28.87   321
2022-11-27 10:38   6.6   7.6    77  40.8  31.1  67.9   28.87   311
2022-11-27 10:36   6.4   8.0    72  40.8  31.1  68.0   28.87   302
2022-11-27 10:34   7.0   8.6    74  40.8  30.9  67.3   28.87   296
2022-11-27 10:32   5.4   7.4    77  40.8  30.9  67.4   28.87   283
2022-11-27 10:30   5.8   7.6    78  40.8  30.9  67.4   28.87   263
2022-11-27 10:28   6.4   8.4    86  40.8  30.8  67.2   28.87   241
2022-11-27 10:26   6.0   8.7    88  40.8  30.9  67.5   28.87   222
2022-11-27 10:24   5.6   6.8    87  40.8  30.8  67.2   28.87   211
2022-11-27 10:22   6.8   9.3    83  40.6  30.7  67.3   28.87   207
2022-11-27 10:20   6.0   8.9    91  40.6  30.9  67.9   28.87   209
2022-11-27 10:18   6.8   9.1    82  40.6  30.9  68.0   28.86   213
2022-11-27 10:16   6.4   9.1    81  40.6  31.0  68.1   28.87   219
2022-11-27 10:14   6.8   8.6    80  40.6  31.0  68.2   28.87   227
2022-11-27 10:12   8.0   8.9    78  40.6  30.9  68.0   28.87   237
2022-11-27 10:10   8.0   8.7    74  40.6  30.9  67.9   28.87   247
2022-11-27 10:08   6.4   7.6    75  40.6  30.9  67.8   28.87   260
2022-11-27 10:06   6.6   7.8    76  40.6  31.1  68.4   28.87   271
2022-11-27 10:04   5.2   7.6    81  40.5  31.0  68.8   28.87   275
2022-11-27 10:02   5.6   6.6    73  40.3  31.0  69.2   28.87   274
2022-11-27 10:00   5.6   6.6    69  40.3  31.2  69.8   28.88   268
2022-11-27 09:58   5.4   7.4    70  40.1  31.1  69.8   28.88   247
2022-11-27 09:56   4.9   6.0    76  40.1  31.2  70.3   28.88   217
2022-11-27 09:54   4.5   6.0    68  39.9  31.0  70.2   28.88   195
2022-11-27 09:52   4.9   6.4    71  39.9  31.0  70.0   28.89   176
2022-11-27 09:50   6.2   7.2    73  39.9  31.0  70.0   28.89   154
2022-11-27 09:48   6.6   7.4    75  40.1  30.9  69.4   28.89   135
2022-11-27 09:46   5.2   6.6    79  40.1  30.8  69.1   28.89   123
2022-11-27 09:44   4.5   6.0    80  40.1  30.8  69.1   28.89   118
2022-11-27 09:42   4.7   6.2    84  40.1  30.7  68.9   28.89   118
2022-11-27 09:40   6.0   7.6    87  40.1  30.7  68.8   28.89   122
2022-11-27 09:38   5.6   6.8    85  40.1  30.9  69.4   28.89   128
2022-11-27 09:36   4.1   5.4    90  39.9  30.7  69.4   28.89   132
2022-11-27 09:34   5.6   7.4    80  39.9  30.8  69.6   28.89   134
2022-11-27 09:32   5.8   8.0    84  39.9  30.8  69.7   28.89   134
2022-11-27 09:30   6.0   7.4    90  39.7  30.7  69.9   28.90   131
2022-11-27 09:28   4.7   5.8    88  39.7  30.7  69.8   28.90   128
2022-11-27 09:26   5.6   6.4    87  39.7  30.8  70.0   28.90   121
2022-11-27 09:24   6.0   6.8    80  39.7  30.7  69.8   28.90   112
2022-11-27 09:22   6.2   7.4    80  39.7  30.6  69.6   28.91   104
2022-11-27 09:20   5.6   6.8    78  39.7  30.5  69.2   28.91   100
2022-11-27 09:18   5.4   7.2    84  39.6  30.3  69.2   28.91    98
2022-11-27 09:16   5.8   7.6    83  39.6  30.3  69.2   28.91    95
2022-11-27 09:14   5.8   7.4    83  39.6  30.3  69.0   28.91    88
2022-11-27 09:12   7.0   8.0    80  39.6  30.3  69.0   28.91    80
2022-11-27 09:10   6.0   7.6    79  39.6  30.4  69.3   28.91    74
2022-11-27 09:08   6.0   7.4    77  39.6  30.5  69.6   28.91    72
2022-11-27 09:06   5.4   7.0    76  39.6  30.5  69.8   28.91    75
2022-11-27 09:04   6.0   7.2    70  39.6  30.6  70.0   28.91    78
2022-11-27 09:02   6.4   7.4    64  39.4  30.4  70.0   28.91    79
2022-11-27 09:00   6.6   7.2    69  39.4  30.5  70.1   28.91    78
2022-11-27 08:58   6.4   8.0    77  39.4  30.5  70.2   28.92    79
2022-11-27 08:56   7.0   8.0    74  39.4  30.6  70.5   28.92    82
2022-11-27 08:54   6.4   8.4    75  39.2  30.5  70.6   28.92    80
2022-11-27 08:52   6.4   7.8    81  39.2  30.5  70.7   28.92    69
2022-11-27 08:50   6.0   7.2    78  39.2  30.5  70.8   28.92    52
2022-11-27 08:48   7.4   8.6    79  39.2  30.5  70.8   28.92    40
2022-11-27 08:46   7.4   8.2    77  39.4  30.8  71.0   28.92    33
2022-11-27 08:44   6.8   7.4    77  39.4  30.8  71.0   28.92    30
2022-11-27 08:42   6.8   7.8    77  39.4  30.9  71.3   28.92    27
2022-11-27 08:40   6.4   8.0    78  39.4  31.0  71.5   28.92    27
2022-11-27 08:38   6.2   7.4    81  39.6  31.2  71.6   28.92    26
2022-11-27 08:36   6.2   7.4    85  39.6  31.0  71.1   28.92    26
2022-11-27 08:34   7.2   8.7    84  39.4  30.8  71.1   28.92    26
2022-11-27 08:32   7.0   8.4    86  39.4  31.2  72.1   28.93    27
2022-11-27 08:30   7.2   8.6    83  39.4  31.2  72.3   28.93    28
2022-11-27 08:28   7.0   7.6    81  39.6  31.5  72.6   28.93    30
2022-11-27 08:26   7.4   8.2    79  39.6  31.6  72.8   28.93    30
2022-11-27 08:24   7.6   8.2    79  39.6  31.4  72.3   28.94    30
2022-11-27 08:22   8.0   8.9    84  39.6  31.4  72.2   28.94    30
2022-11-27 08:20   7.6   8.9    88  39.4  31.2  72.3   28.94    28
2022-11-27 08:18   7.2   8.2    89  39.4  31.5  73.2   28.94    25
2022-11-27 08:16   8.4   9.1    99  39.4  31.8  74.1   28.94    21
2022-11-27 08:14   8.0   8.7   103  39.4  31.9  74.4   28.94    17
2022-11-27 08:12   8.0   8.6    95  39.4  32.0  74.7   28.94    14
2022-11-27 08:10   8.0   8.6    92  39.4  32.0  74.7   28.94    11